createdAt,value
2017-05-10T00:00:03.373Z,0
2017-05-10T00:05:06.183Z,0
2017-05-10T00:10:02.854Z,0
2017-05-10T00:15:02.474Z,0
2017-05-10T00:20:03.305Z,0
2017-05-10T00:25:02.886Z,0
2017-05-10T00:30:02.551Z,0
2017-05-10T00:35:03.221Z,0
2017-05-10T00:45:02.858Z,0
2017-05-10T00:50:02.624Z,0
2017-05-10T00:55:11.149Z,0
2017-05-10T01:00:02.792Z,0
2017-05-10T01:05:02.511Z,0
2017-05-10T01:10:03.247Z,0
2017-05-10T01:15:03.002Z,0
2017-05-10T01:20:02.604Z,0
2017-05-10T01:25:03.247Z,0
2017-05-10T01:30:02.871Z,0
2017-05-10T01:35:02.479Z,0
2017-05-10T01:40:03.113Z,0
2017-05-10T01:45:02.739Z,0
2017-05-10T01:50:03.301Z,0
2017-05-10T01:55:02.948Z,0
2017-05-10T02:00:02.600Z,0
2017-05-10T02:05:03.241Z,0
2017-05-10T02:10:03.130Z,0
2017-05-10T02:15:02.828Z,0
2017-05-10T02:20:02.491Z,0
2017-05-10T02:25:03.149Z,0
2017-05-10T02:30:02.961Z,0
2017-05-10T02:35:02.591Z,0
2017-05-10T02:40:18.253Z,0
2017-05-10T02:45:02.897Z,0
2017-05-10T02:50:02.612Z,0
2017-05-10T02:55:03.341Z,0
2017-05-10T03:00:03.081Z,0
2017-05-10T03:05:02.854Z,0
2017-05-10T03:10:02.659Z,0
2017-05-10T03:15:03.378Z,2
2017-05-10T03:20:03.084Z,4
2017-05-10T03:25:02.689Z,9
2017-05-10T03:30:03.441Z,17
2017-05-10T03:35:03.020Z,37
2017-05-10T03:40:02.914Z,49
2017-05-10T03:45:02.651Z,61
2017-05-10T03:50:03.330Z,75
2017-05-10T03:55:03.032Z,101
2017-05-10T04:00:02.907Z,251
2017-05-10T04:05:02.646Z,329
2017-05-10T04:10:03.543Z,440
2017-05-10T04:15:03.265Z,547
2017-05-10T04:20:02.980Z,678
2017-05-10T04:25:02.825Z,809
2017-05-10T04:30:02.583Z,890
2017-05-10T04:35:03.271Z,974
2017-05-10T04:40:02.858Z,1000
2017-05-10T04:45:02.487Z,1000
2017-05-10T04:50:03.148Z,1000
2017-05-10T04:55:02.860Z,1000
2017-05-10T05:00:03.424Z,1000
2017-05-10T05:05:02.996Z,1000
2017-05-10T05:10:02.611Z,2000
2017-05-10T05:15:03.213Z,2000
2017-05-10T05:20:02.847Z,2000
2017-05-10T05:25:02.538Z,2000
2017-05-10T05:30:03.217Z,2000
2017-05-10T05:35:02.795Z,2000
2017-05-10T05:40:02.553Z,2000
2017-05-10T05:45:03.146Z,2000
2017-05-10T05:50:02.890Z,2000
2017-05-10T05:55:03.468Z,2000
2017-05-10T06:00:03.135Z,2000
2017-05-10T06:05:02.781Z,2000
2017-05-10T06:10:03.451Z,2000
2017-05-10T06:15:03.023Z,2000
2017-05-10T06:20:02.618Z,2000
2017-05-10T06:25:03.196Z,2000
2017-05-10T06:30:02.823Z,3000
2017-05-10T06:35:02.547Z,3000
2017-05-10T06:40:03.296Z,3000
2017-05-10T06:45:02.969Z,3000
2017-05-10T06:50:02.537Z,3000
2017-05-10T06:55:03.262Z,3000
2017-05-10T07:00:02.952Z,3000
2017-05-10T07:05:02.625Z,3000
2017-05-10T07:10:03.318Z,3000
2017-05-10T07:15:02.993Z,3000
2017-05-10T07:20:02.774Z,3000
2017-05-10T07:25:03.390Z,4000
2017-05-10T07:30:03.012Z,4000
2017-05-10T07:35:02.657Z,4000
2017-05-10T07:40:03.413Z,5000
2017-05-10T07:45:03.083Z,5000
2017-05-10T07:50:02.842Z,5000
2017-05-10T07:55:02.608Z,5000
2017-05-10T08:00:03.410Z,6000
2017-05-10T08:05:03.168Z,6000
2017-05-10T08:10:02.765Z,6000
2017-05-10T08:15:02.541Z,16000
2017-05-10T08:20:03.383Z,37000
2017-05-10T08:25:03.163Z,43000
2017-05-10T08:30:02.930Z,47000
2017-05-10T08:35:02.525Z,50000
2017-05-10T08:40:03.392Z,51000
2017-05-10T08:45:03.185Z,53000
2017-05-10T08:50:03.140Z,55000
2017-05-10T08:55:02.913Z,56000
2017-05-10T09:00:02.552Z,60000
2017-05-10T09:05:02.458Z,61000
2017-05-10T09:10:02.455Z,61000
2017-05-10T09:15:02.813Z,36000
2017-05-10T09:20:03.364Z,59000
2017-05-10T09:25:02.673Z,64000
2017-05-10T09:30:02.988Z,37000
2017-05-10T09:35:03.249Z,58000
2017-05-10T09:40:02.602Z,36000
2017-05-10T09:45:03.373Z,33000
2017-05-10T09:50:03.162Z,47000
2017-05-10T09:55:02.850Z,15000
2017-05-10T10:00:02.578Z,60000
2017-05-10T10:05:03.282Z,65000
2017-05-10T10:10:03.323Z,66000
2017-05-10T10:15:03.154Z,67000
2017-05-10T10:20:03.368Z,66000
2017-05-10T10:25:03.134Z,66000
2017-05-10T10:30:03.374Z,52000
2017-05-10T10:35:03.391Z,63000
2017-05-10T10:40:02.565Z,18000
2017-05-10T10:45:02.954Z,60000
2017-05-10T10:50:02.692Z,61000
2017-05-10T10:55:02.754Z,60000
2017-05-10T11:00:03.307Z,61000
2017-05-10T11:05:02.880Z,59000
2017-05-10T11:10:03.389Z,60000
2017-05-10T11:15:02.531Z,60000
2017-05-10T11:20:02.973Z,58000
2017-05-10T11:25:02.650Z,59000
2017-05-10T11:30:02.502Z,57000
2017-05-10T11:35:02.497Z,60000
2017-05-10T11:40:02.714Z,21000
2017-05-10T11:45:03.114Z,44000
2017-05-10T11:50:02.965Z,57000
2017-05-10T11:55:02.973Z,55000
2017-05-10T12:00:02.474Z,54000
2017-05-10T12:05:02.678Z,54000
2017-05-10T12:10:02.540Z,55000
2017-05-10T12:15:02.655Z,55000
2017-05-10T12:20:02.531Z,55000
2017-05-10T12:25:02.555Z,57000
2017-05-10T12:30:02.541Z,56000
2017-05-10T12:35:03.473Z,13000
2017-05-10T12:40:02.623Z,13000
2017-05-10T12:45:02.490Z,36000
2017-05-10T12:50:03.028Z,44000
2017-05-10T12:55:03.247Z,44000
2017-05-10T13:00:02.780Z,44000
2017-05-10T13:05:02.478Z,44000
2017-05-10T13:10:02.495Z,39000
2017-05-10T13:15:02.700Z,41000
2017-05-10T13:20:03.174Z,41000
2017-05-10T13:25:03.103Z,41000
2017-05-10T13:30:03.299Z,40000
2017-05-10T13:35:02.490Z,39000
2017-05-10T13:40:02.877Z,38000
2017-05-10T13:45:03.148Z,37000
2017-05-10T13:50:02.713Z,36000
2017-05-10T13:55:03.149Z,35000
2017-05-10T14:00:03.327Z,34000
2017-05-10T14:05:03.024Z,35000
2017-05-10T14:10:02.635Z,34000
2017-05-10T14:15:03.200Z,33000
2017-05-10T14:20:02.874Z,32000
2017-05-10T14:25:03.223Z,30000
2017-05-10T14:30:02.531Z,28000
2017-05-10T14:35:03.016Z,29000
2017-05-10T14:40:02.749Z,28000
2017-05-10T14:45:03.141Z,28000
2017-05-10T14:50:02.566Z,28000
2017-05-10T14:55:03.040Z,26000
2017-05-10T15:00:02.571Z,26000
2017-05-10T15:05:02.591Z,25000
2017-05-10T15:10:03.043Z,24000
2017-05-10T15:15:03.304Z,24000
2017-05-10T15:20:02.701Z,23000
2017-05-10T15:25:03.167Z,23000
2017-05-10T15:30:02.644Z,22000
2017-05-10T15:35:02.674Z,21000
2017-05-10T15:40:02.754Z,21000
2017-05-10T15:45:02.497Z,20000
2017-05-10T15:50:03.412Z,20000
2017-05-10T15:55:02.504Z,19000
2017-05-10T16:00:02.963Z,18000
2017-05-10T16:05:02.463Z,18000
2017-05-10T16:10:02.974Z,18000
2017-05-10T16:15:03.276Z,17000
2017-05-10T16:20:03.074Z,17000
2017-05-10T16:25:02.694Z,16000
2017-05-10T16:30:03.245Z,16000
2017-05-10T16:35:03.248Z,15000
2017-05-10T16:40:02.986Z,14000
2017-05-10T16:45:03.003Z,14000
2017-05-10T16:50:02.561Z,14000
2017-05-10T16:55:02.531Z,13000
2017-05-10T17:00:02.866Z,12000
2017-05-10T17:05:02.917Z,12000
2017-05-10T17:10:02.758Z,11000
2017-05-10T17:15:02.593Z,10000
2017-05-10T17:20:02.621Z,10000
2017-05-10T17:25:02.775Z,10000
2017-05-10T17:30:03.159Z,10000
2017-05-10T17:35:03.394Z,9000
2017-05-10T17:40:03.281Z,8000
2017-05-10T17:45:02.475Z,7000
2017-05-10T17:50:02.786Z,7000
2017-05-10T17:55:02.719Z,6000
2017-05-10T18:00:02.608Z,5000
2017-05-10T18:05:03.289Z,5000
2017-05-10T18:10:03.371Z,4000
2017-05-10T18:15:03.420Z,4000
2017-05-10T18:20:03.289Z,3000
2017-05-10T18:25:03.432Z,2000
2017-05-10T18:30:02.843Z,1000
2017-05-10T18:35:02.749Z,1000
2017-05-10T18:40:02.699Z,1000
2017-05-10T18:45:02.784Z,866
2017-05-10T18:50:02.713Z,732
2017-05-10T18:55:03.161Z,637
2017-05-10T19:00:02.956Z,518
2017-05-10T19:05:02.914Z,407
2017-05-10T19:10:02.710Z,309
2017-05-10T19:15:02.923Z,184
2017-05-10T19:20:02.668Z,81
2017-05-10T19:25:03.330Z,64
2017-05-10T19:30:03.009Z,39
2017-05-10T19:35:02.735Z,24
2017-05-10T19:40:03.362Z,12
2017-05-10T19:45:03.147Z,5
2017-05-10T19:50:02.841Z,2
2017-05-10T19:55:02.587Z,1
2017-05-10T20:00:03.143Z,0
2017-05-10T20:05:02.770Z,0
2017-05-10T20:10:03.459Z,0
2017-05-10T20:15:03.238Z,0
2017-05-10T20:20:02.815Z,0
2017-05-10T20:25:02.561Z,0
2017-05-10T20:30:03.301Z,0
2017-05-10T20:35:02.847Z,0
2017-05-10T20:40:02.469Z,0
2017-05-10T20:45:03.189Z,0
2017-05-10T20:50:02.954Z,0
2017-05-10T20:55:02.679Z,0
2017-05-10T21:00:03.237Z,0
2017-05-10T21:05:02.857Z,0
2017-05-10T21:10:02.543Z,0
2017-05-10T21:15:03.291Z,0
2017-05-10T21:20:02.881Z,0
2017-05-10T21:25:02.574Z,0
2017-05-10T21:30:03.306Z,0
2017-05-10T21:35:02.902Z,0
2017-05-10T21:40:02.707Z,0
2017-05-10T21:45:03.262Z,0
2017-05-10T21:50:02.863Z,0
2017-05-10T21:55:02.491Z,0
2017-05-10T22:00:03.047Z,0
2017-05-10T22:05:02.670Z,0
2017-05-10T22:10:03.308Z,0
2017-05-10T22:15:02.947Z,0
2017-05-10T22:20:02.560Z,0
2017-05-10T22:25:03.170Z,0
2017-05-10T22:30:02.756Z,0
2017-05-10T22:35:03.403Z,0
2017-05-10T22:40:03.135Z,0
2017-05-10T22:45:09.794Z,0
2017-05-10T22:50:03.324Z,0
2017-05-10T22:55:03.015Z,0
2017-05-10T23:00:02.710Z,0
2017-05-10T23:05:03.272Z,0
2017-05-10T23:10:13.963Z,0
2017-05-10T23:15:02.547Z,0
2017-05-10T23:20:03.192Z,0
2017-05-10T23:25:02.896Z,0
2017-05-10T23:30:02.580Z,0
2017-05-10T23:35:03.383Z,0
2017-05-10T23:40:03.160Z,0
2017-05-10T23:45:03.134Z,0
2017-05-10T23:50:02.690Z,0
2017-05-10T23:55:03.420Z,0
